createdAt,value
2022-07-31T00:04:44.035Z,99.90
2022-07-31T00:09:53.734Z,99.90
2022-07-31T00:14:56.321Z,99.90
2022-07-31T00:19:58.058Z,99.90
2022-07-31T00:24:59.787Z,99.90
2022-07-31T00:30:01.627Z,99.90
2022-07-31T00:35:03.564Z,99.90
2022-07-31T00:40:06.516Z,99.90
2022-07-31T00:45:09.958Z,99.90
2022-07-31T00:50:15.270Z,99.90
2022-07-31T00:55:51.319Z,99.90
2022-07-31T01:00:54.068Z,99.90
2022-07-31T01:05:55.901Z,99.90
2022-07-31T01:11:13.181Z,99.90
2022-07-31T01:16:17.083Z,99.90
2022-07-31T01:21:35.268Z,99.90
2022-07-31T01:27:01.474Z,99.90
2022-07-31T01:32:17.365Z,99.90
2022-07-31T01:37:24.100Z,99.90
2022-07-31T01:42:27.392Z,99.90
2022-07-31T01:47:31.553Z,99.90
2022-07-31T01:52:34.335Z,99.90
2022-07-31T01:57:38.161Z,99.90
2022-07-31T02:02:42.522Z,99.90
2022-07-31T02:07:46.652Z,99.90
2022-07-31T02:12:49.358Z,99.90
2022-07-31T02:17:52.529Z,99.90
2022-07-31T02:22:55.221Z,99.90
2022-07-31T02:27:59.742Z,99.90
2022-07-31T02:33:03.315Z,99.90
2022-07-31T02:38:05.821Z,99.90
2022-07-31T02:43:20.421Z,99.90
2022-07-31T02:48:23.732Z,99.90
2022-07-31T02:53:26.572Z,99.90
2022-07-31T02:58:28.410Z,99.90
2022-07-31T03:03:30.289Z,99.90
2022-07-31T03:09:45.436Z,99.90
2022-07-31T03:14:00.372Z,99.90
2022-07-31T03:19:04.056Z,99.90
2022-07-31T03:24:06.423Z,99.90
2022-07-31T03:29:41.533Z,99.90
2022-07-31T03:34:29.877Z,99.90
2022-07-31T03:39:31.635Z,99.90
2022-07-31T03:44:34.402Z,99.90
2022-07-31T03:49:36.403Z,99.90
2022-07-31T03:54:38.317Z,99.90
2022-07-31T03:59:40.739Z,99.90
2022-07-31T04:04:49.875Z,99.90
2022-07-31T04:09:51.915Z,99.90
2022-07-31T04:14:53.638Z,99.90
2022-07-31T04:19:55.349Z,99.90
2022-07-31T04:24:57.133Z,99.90
2022-07-31T04:29:58.976Z,99.90
2022-07-31T04:35:00.684Z,99.90
2022-07-31T04:40:02.528Z,99.90
2022-07-31T04:45:04.584Z,99.90
2022-07-31T04:50:06.779Z,99.90
2022-07-31T04:55:08.951Z,99.90
2022-07-31T05:00:11.210Z,99.90
2022-07-31T05:05:12.979Z,99.90
2022-07-31T05:10:14.778Z,99.90
2022-07-31T05:15:16.733Z,99.90
2022-07-31T05:20:18.469Z,99.90
2022-07-31T05:25:20.195Z,99.90
2022-07-31T05:30:42.163Z,99.90
2022-07-31T05:35:43.891Z,99.90
2022-07-31T05:40:45.666Z,99.90
2022-07-31T05:45:47.577Z,99.90
2022-07-31T05:50:50.681Z,99.90
2022-07-31T05:55:52.602Z,99.90
2022-07-31T06:00:54.374Z,99.90
2022-07-31T06:05:56.528Z,99.90
2022-07-31T06:10:58.654Z,99.90
2022-07-31T06:16:00.370Z,99.90
2022-07-31T06:21:02.073Z,99.90
2022-07-31T06:26:03.933Z,99.90
2022-07-31T06:31:06.597Z,99.90
2022-07-31T06:36:11.044Z,99.90
2022-07-31T06:41:13.052Z,99.90
2022-07-31T06:46:14.785Z,99.90
2022-07-31T06:51:32.463Z,99.90
2022-07-31T06:56:35.694Z,99.90
2022-07-31T07:01:37.499Z,99.90
2022-07-31T07:06:39.316Z,99.90
2022-07-31T07:11:41.064Z,99.90
2022-07-31T07:16:42.836Z,99.90
2022-07-31T07:21:44.551Z,99.90
2022-07-31T07:26:46.279Z,99.90
2022-07-31T07:31:48.029Z,99.90
2022-07-31T07:36:49.739Z,99.90
2022-07-31T07:41:51.494Z,99.90
2022-07-31T07:46:53.198Z,99.90
2022-07-31T07:51:59.082Z,99.90
2022-07-31T07:57:01.949Z,99.90
2022-07-31T08:02:04.007Z,99.90
2022-07-31T08:07:06.158Z,99.90
2022-07-31T08:12:08.035Z,99.90
2022-07-31T08:17:13.720Z,99.90
2022-07-31T08:22:15.530Z,99.90
2022-07-31T08:27:17.252Z,99.90
2022-07-31T08:32:24.522Z,99.90
2022-07-31T08:37:50.987Z,99.90
2022-07-31T08:42:47.943Z,99.90
2022-07-31T08:47:49.956Z,99.90
2022-07-31T08:52:56.681Z,99.90
2022-07-31T08:57:58.616Z,99.90
2022-07-31T09:03:01.081Z,99.90
2022-07-31T09:08:08.394Z,99.90
2022-07-31T09:13:19.249Z,99.90
2022-07-31T09:18:21.849Z,99.90
2022-07-31T09:23:24.697Z,99.90
2022-07-31T09:28:37.208Z,99.90
2022-07-31T09:33:45.644Z,99.90
2022-07-31T09:38:48.147Z,99.90
2022-07-31T09:44:00.557Z,99.90
2022-07-31T09:49:02.339Z,99.90
2022-07-31T09:54:04.113Z,99.90
2022-07-31T09:59:05.846Z,99.90
2022-07-31T10:04:08.342Z,99.90
2022-07-31T10:09:10.892Z,99.90
2022-07-31T10:14:18.919Z,99.90
2022-07-31T10:19:22.282Z,99.90
2022-07-31T10:24:28.386Z,99.90
2022-07-31T10:29:32.820Z,99.90
2022-07-31T10:34:35.858Z,99.90
2022-07-31T10:40:08.560Z,99.90
2022-07-31T10:45:12.551Z,99.90
2022-07-31T10:50:22.269Z,99.90
2022-07-31T10:55:24.626Z,99.90
2022-07-31T11:00:28.520Z,99.90
2022-07-31T11:05:31.838Z,99.90
2022-07-31T11:10:55.391Z,99.90
2022-07-31T11:16:06.676Z,99.90
2022-07-31T11:21:29.151Z,99.90
2022-07-31T11:26:40.913Z,99.90
2022-07-31T11:31:43.955Z,99.90
2022-07-31T11:36:50.723Z,99.90
2022-07-31T11:41:53.425Z,99.20
2022-07-31T11:46:55.405Z,99.40
2022-07-31T11:52:01.470Z,99.00
2022-07-31T11:57:03.651Z,98.90
2022-07-31T12:02:13.553Z,99.00
2022-07-31T12:07:15.354Z,97.20
2022-07-31T12:12:18.469Z,97.10
2022-07-31T12:17:22.054Z,94.30
2022-07-31T12:22:23.769Z,94.60
2022-07-31T12:27:25.613Z,93.20
2022-07-31T12:32:28.148Z,93.90
2022-07-31T12:37:30.134Z,93.90
2022-07-31T12:42:39.066Z,94.40
2022-07-31T12:47:40.976Z,95.10
2022-07-31T12:52:42.891Z,95.90
2022-07-31T12:57:51.401Z,94.80
2022-07-31T13:02:56.191Z,95.50
2022-07-31T13:07:57.967Z,95.00
2022-07-31T13:12:59.658Z,95.00
2022-07-31T13:18:01.887Z,95.10
2022-07-31T13:23:03.613Z,95.40
2022-07-31T13:28:05.327Z,93.90
2022-07-31T13:33:07.040Z,93.80
2022-07-31T13:38:08.757Z,93.30
2022-07-31T13:43:10.693Z,92.20
2022-07-31T13:48:12.416Z,93.40
2022-07-31T13:53:14.287Z,93.20
2022-07-31T13:58:16.004Z,92.90
2022-07-31T14:03:18.489Z,92.60
2022-07-31T14:08:32.888Z,92.70
2022-07-31T14:13:45.231Z,93.10
2022-07-31T14:18:46.937Z,92.90
2022-07-31T14:23:48.682Z,92.70
2022-07-31T14:28:50.541Z,91.70
2022-07-31T14:33:52.280Z,92.20
2022-07-31T14:38:54.007Z,91.40
2022-07-31T14:43:55.720Z,92.30
2022-07-31T14:48:57.738Z,91.60
2022-07-31T14:53:59.978Z,92.00
2022-07-31T14:59:01.864Z,91.30
2022-07-31T15:04:03.901Z,91.20
2022-07-31T15:09:05.638Z,86.80
2022-07-31T15:14:07.487Z,87.50
2022-07-31T15:19:09.266Z,88.80
2022-07-31T15:24:11.901Z,89.40
2022-07-31T15:29:13.626Z,87.00
2022-07-31T15:34:15.392Z,86.00
2022-07-31T15:39:17.112Z,87.20
2022-07-31T15:44:18.801Z,83.70
2022-07-31T15:49:20.675Z,85.70
2022-07-31T15:54:23.279Z,85.30
2022-07-31T15:59:24.998Z,85.10
2022-07-31T16:04:26.758Z,84.80
2022-07-31T16:09:33.349Z,86.00
2022-07-31T16:14:35.063Z,83.40
2022-07-31T16:19:36.793Z,85.70
2022-07-31T16:24:38.936Z,85.40
2022-07-31T16:29:59.694Z,86.20
2022-07-31T16:35:02.815Z,81.90
2022-07-31T16:40:05.914Z,79.90
2022-07-31T16:45:08.221Z,82.00
2022-07-31T16:50:10.474Z,79.40
2022-07-31T16:55:12.311Z,81.90
2022-07-31T17:00:14.401Z,77.50
2022-07-31T17:05:16.454Z,83.40
2022-07-31T17:10:18.156Z,85.80
2022-07-31T17:15:19.893Z,84.50
2022-07-31T17:20:23.270Z,86.00
2022-07-31T17:25:25.234Z,87.10
2022-07-31T17:30:28.459Z,90.20
2022-07-31T17:35:30.158Z,90.90
2022-07-31T17:40:43.868Z,91.40
2022-07-31T17:46:06.147Z,91.40
2022-07-31T17:51:07.692Z,91.90
2022-07-31T17:56:13.193Z,92.40
2022-07-31T18:01:15.043Z,92.20
2022-07-31T18:06:16.799Z,92.10
2022-07-31T18:11:18.661Z,92.80
2022-07-31T18:16:21.335Z,92.30
2022-07-31T18:21:23.029Z,92.80
2022-07-31T18:26:24.812Z,93.00
2022-07-31T18:31:34.208Z,93.60
2022-07-31T18:36:38.115Z,93.70
2022-07-31T18:41:39.972Z,94.10
2022-07-31T18:46:41.890Z,94.70
2022-07-31T18:51:43.652Z,95.70
2022-07-31T18:56:46.042Z,96.10
2022-07-31T19:01:47.832Z,96.60
2022-07-31T19:06:54.093Z,97.00
2022-07-31T19:12:01.804Z,97.90
2022-07-31T19:17:08.410Z,98.10
2022-07-31T19:22:10.390Z,99.20
2022-07-31T19:27:12.298Z,99.80
2022-07-31T19:32:14.130Z,99.90
2022-07-31T19:37:16.267Z,99.90
2022-07-31T19:42:18.103Z,99.90
2022-07-31T19:47:19.860Z,99.90
2022-07-31T19:52:24.832Z,99.90
2022-07-31T19:57:26.623Z,99.90
2022-07-31T20:02:28.361Z,99.90
2022-07-31T20:07:32.884Z,99.90
2022-07-31T20:12:34.906Z,99.90
2022-07-31T20:17:37.312Z,99.90
2022-07-31T20:22:39.175Z,99.90
2022-07-31T20:27:41.541Z,99.90
2022-07-31T20:32:48.690Z,99.90
2022-07-31T20:37:50.563Z,99.90
2022-07-31T20:42:52.287Z,99.90
2022-07-31T20:47:54.069Z,99.90
2022-07-31T20:52:55.778Z,99.90
2022-07-31T20:57:57.507Z,99.90
2022-07-31T21:02:59.218Z,99.90
2022-07-31T21:08:00.916Z,99.90
2022-07-31T21:13:04.629Z,99.90
2022-07-31T21:18:06.514Z,99.90
2022-07-31T21:23:08.251Z,99.90
2022-07-31T21:28:12.713Z,99.90
2022-07-31T21:33:14.690Z,99.90
2022-07-31T21:38:17.592Z,99.90
2022-07-31T21:43:22.449Z,99.90
2022-07-31T21:48:26.713Z,99.90
2022-07-31T21:53:36.089Z,99.90
2022-07-31T21:58:40.564Z,99.90
2022-07-31T22:03:42.776Z,99.90
2022-07-31T22:08:44.878Z,99.90
2022-07-31T22:13:47.233Z,99.90
2022-07-31T22:18:49.273Z,99.90
2022-07-31T22:23:51.265Z,99.90
2022-07-31T22:28:54.104Z,99.90
2022-07-31T22:33:56.342Z,99.90
2022-07-31T22:38:58.103Z,99.90
2022-07-31T22:44:12.247Z,99.90
2022-07-31T22:49:18.136Z,99.90
2022-07-31T22:54:19.888Z,99.90
2022-07-31T22:59:21.608Z,99.90
2022-07-31T23:04:23.748Z,99.90
2022-07-31T23:09:25.621Z,99.90
2022-07-31T23:14:27.880Z,99.90
2022-07-31T23:19:29.658Z,99.90
2022-07-31T23:24:31.631Z,99.90
2022-07-31T23:29:33.652Z,99.90
2022-07-31T23:34:43.305Z,99.90
2022-07-31T23:39:45.076Z,99.90
2022-07-31T23:44:46.777Z,99.90
2022-07-31T23:49:48.584Z,99.90
2022-07-31T23:54:50.437Z,99.90
2022-07-31T23:59:52.167Z,99.90
